sensor_id;sensor_type;location;lat;lon;timestamp;pressure;altitude;pressure_sealevel;temperature;humidity
43818;BME280;29868;47.360;18.984;2022-08-18T00:00:35;99809.50;;;21.83;95.84
43818;BME280;29868;47.360;18.984;2022-08-18T00:03:06;99802.75;;;21.98;90.12
43818;BME280;29868;47.360;18.984;2022-08-18T00:05:33;99803.09;;;21.89;90.92
43818;BME280;29868;47.360;18.984;2022-08-18T00:07:59;99799.38;;;21.94;89.05
43818;BME280;29868;47.360;18.984;2022-08-18T00:10:25;99800.16;;;21.96;88.20
43818;BME280;29868;47.360;18.984;2022-08-18T00:12:50;99794.66;;;22.01;87.11
43818;BME280;29868;47.360;18.984;2022-08-18T00:15:17;99802.13;;;21.91;88.05
43818;BME280;29868;47.360;18.984;2022-08-18T00:17:43;99807.50;;;21.90;88.07
43818;BME280;29868;47.360;18.984;2022-08-18T00:20:12;99796.53;;;21.77;89.41
43818;BME280;29868;47.360;18.984;2022-08-18T00:22:39;99800.66;;;21.84;88.74
43818;BME280;29868;47.360;18.984;2022-08-18T00:25:05;99796.63;;;21.97;88.36
43818;BME280;29868;47.360;18.984;2022-08-18T00:27:34;99790.19;;;22.03;88.62
43818;BME280;29868;47.360;18.984;2022-08-18T00:30:04;99796.34;;;22.03;89.76
43818;BME280;29868;47.360;18.984;2022-08-18T00:32:37;99812.53;;;21.96;90.84
43818;BME280;29868;47.360;18.984;2022-08-18T00:35:32;99805.94;;;21.84;92.66
43818;BME280;29868;47.360;18.984;2022-08-18T00:38:01;99802.00;;;21.72;94.62
43818;BME280;29868;47.360;18.984;2022-08-18T00:40:41;99797.09;;;21.63;95.55
43818;BME280;29868;47.360;18.984;2022-08-18T00:43:12;99805.72;;;21.67;96.15
43818;BME280;29868;47.360;18.984;2022-08-18T00:45:41;99806.91;;;21.81;96.70
43818;BME280;29868;47.360;18.984;2022-08-18T00:48:08;99800.41;;;21.68;96.77
43818;BME280;29868;47.360;18.984;2022-08-18T00:50:53;99810.34;;;21.61;97.76
43818;BME280;29868;47.360;18.984;2022-08-18T00:53:35;99817.03;;;21.48;99.93
43818;BME280;29868;47.360;18.984;2022-08-18T00:56:14;99811.56;;;21.28;100.00
43818;BME280;29868;47.360;18.984;2022-08-18T00:58:47;99822.50;;;21.19;100.00
43818;BME280;29868;47.360;18.984;2022-08-18T01:01:16;99821.09;;;21.08;100.00
43818;BME280;29868;47.360;18.984;2022-08-18T01:03:44;99816.75;;;21.07;100.00
43818;BME280;29868;47.360;18.984;2022-08-18T01:06:24;99822.19;;;21.03;100.00
43818;BME280;29868;47.360;18.984;2022-08-18T01:08:51;99827.59;;;20.98;100.00
43818;BME280;29868;47.360;18.984;2022-08-18T01:11:16;99821.00;;;20.86;100.00
43818;BME280;29868;47.360;18.984;2022-08-18T01:13:42;99825.75;;;20.77;100.00
43818;BME280;29868;47.360;18.984;2022-08-18T01:16:08;99831.28;;;20.69;100.00
43818;BME280;29868;47.360;18.984;2022-08-18T01:18:52;99826.16;;;20.64;100.00
43818;BME280;29868;47.360;18.984;2022-08-18T01:21:45;99822.38;;;20.45;100.00
43818;BME280;29868;47.360;18.984;2022-08-18T01:24:20;99823.28;;;20.44;100.00
43818;BME280;29868;47.360;18.984;2022-08-18T01:27:08;99823.19;;;20.47;100.00
43818;BME280;29868;47.360;18.984;2022-08-18T01:29:34;99824.25;;;20.41;100.00
43818;BME280;29868;47.360;18.984;2022-08-18T01:32:03;99826.00;;;20.42;100.00
43818;BME280;29868;47.360;18.984;2022-08-18T01:34:29;99821.69;;;20.40;100.00
43818;BME280;29868;47.360;18.984;2022-08-18T01:36:55;99827.97;;;20.36;100.00
43818;BME280;29868;47.360;18.984;2022-08-18T01:39:21;99832.53;;;20.31;100.00
43818;BME280;29868;47.360;18.984;2022-08-18T01:41:47;99835.19;;;20.31;100.00
43818;BME280;29868;47.360;18.984;2022-08-18T01:44:12;99831.00;;;20.24;100.00
43818;BME280;29868;47.360;18.984;2022-08-18T01:46:39;99822.38;;;20.18;100.00
43818;BME280;29868;47.360;18.984;2022-08-18T01:49:06;99826.69;;;20.21;100.00
43818;BME280;29868;47.360;18.984;2022-08-18T01:51:33;99829.56;;;20.13;100.00
43818;BME280;29868;47.360;18.984;2022-08-18T01:53:59;99826.03;;;20.14;100.00
43818;BME280;29868;47.360;18.984;2022-08-18T01:56:25;99835.47;;;20.22;100.00
43818;BME280;29868;47.360;18.984;2022-08-18T01:58:52;99847.22;;;20.11;100.00
43818;BME280;29868;47.360;18.984;2022-08-18T02:01:17;99839.75;;;19.98;100.00
43818;BME280;29868;47.360;18.984;2022-08-18T02:03:46;99828.53;;;19.91;100.00
43818;BME280;29868;47.360;18.984;2022-08-18T02:06:14;99830.22;;;19.93;100.00
43818;BME280;29868;47.360;18.984;2022-08-18T02:08:43;99838.81;;;20.00;100.00
43818;BME280;29868;47.360;18.984;2022-08-18T02:11:08;99830.78;;;20.03;100.00
43818;BME280;29868;47.360;18.984;2022-08-18T02:13:34;99835.41;;;19.97;100.00
43818;BME280;29868;47.360;18.984;2022-08-18T02:16:00;99832.78;;;19.95;100.00
43818;BME280;29868;47.360;18.984;2022-08-18T02:18:29;99832.03;;;19.91;100.00
43818;BME280;29868;47.360;18.984;2022-08-18T02:20:56;99835.16;;;20.04;100.00
43818;BME280;29868;47.360;18.984;2022-08-18T02:23:22;99836.00;;;20.05;100.00
43818;BME280;29868;47.360;18.984;2022-08-18T02:25:47;99836.53;;;19.88;100.00
43818;BME280;29868;47.360;18.984;2022-08-18T02:28:13;99832.09;;;19.90;100.00
43818;BME280;29868;47.360;18.984;2022-08-18T02:30:38;99846.41;;;19.81;100.00
43818;BME280;29868;47.360;18.984;2022-08-18T02:33:05;99845.66;;;19.78;100.00
43818;BME280;29868;47.360;18.984;2022-08-18T02:35:32;99841.38;;;19.74;100.00
43818;BME280;29868;47.360;18.984;2022-08-18T02:38:03;99842.31;;;19.71;100.00
43818;BME280;29868;47.360;18.984;2022-08-18T02:40:29;99843.34;;;19.65;100.00
43818;BME280;29868;47.360;18.984;2022-08-18T02:42:56;99831.78;;;19.71;100.00
43818;BME280;29868;47.360;18.984;2022-08-18T02:45:22;99836.28;;;19.67;100.00
43818;BME280;29868;47.360;18.984;2022-08-18T02:47:53;99831.78;;;19.71;100.00
43818;BME280;29868;47.360;18.984;2022-08-18T02:50:19;99828.22;;;19.72;100.00
43818;BME280;29868;47.360;18.984;2022-08-18T02:52:44;99850.03;;;19.77;100.00
43818;BME280;29868;47.360;18.984;2022-08-18T02:55:10;99846.81;;;19.67;100.00
43818;BME280;29868;47.360;18.984;2022-08-18T02:57:40;99858.38;;;19.62;100.00
43818;BME280;29868;47.360;18.984;2022-08-18T03:00:07;99846.09;;;19.61;100.00
43818;BME280;29868;47.360;18.984;2022-08-18T03:02:34;99854.81;;;19.64;100.00
43818;BME280;29868;47.360;18.984;2022-08-18T03:05:00;99854.13;;;19.56;100.00
43818;BME280;29868;47.360;18.984;2022-08-18T03:07:25;99855.09;;;19.54;100.00
43818;BME280;29868;47.360;18.984;2022-08-18T03:09:50;99866.47;;;19.54;100.00
43818;BME280;29868;47.360;18.984;2022-08-18T03:12:16;99862.28;;;19.47;100.00
43818;BME280;29868;47.360;18.984;2022-08-18T03:14:41;99862.50;;;19.39;100.00
43818;BME280;29868;47.360;18.984;2022-08-18T03:17:08;99863.41;;;19.40;100.00
43818;BME280;29868;47.360;18.984;2022-08-18T03:19:34;99866.13;;;19.37;100.00
43818;BME280;29868;47.360;18.984;2022-08-18T03:21:59;99872.19;;;19.39;100.00
43818;BME280;29868;47.360;18.984;2022-08-18T03:24:26;99866.47;;;19.54;100.00
43818;BME280;29868;47.360;18.984;2022-08-18T03:26:54;99860.13;;;19.63;100.00
43818;BME280;29868;47.360;18.984;2022-08-18T03:29:21;99854.59;;;19.72;100.00
43818;BME280;29868;47.360;18.984;2022-08-18T03:31:48;99852.78;;;19.74;100.00
43818;BME280;29868;47.360;18.984;2022-08-18T03:34:15;99856.97;;;19.80;100.00
43818;BME280;29868;47.360;18.984;2022-08-18T03:36:43;99859.91;;;20.00;100.00
43818;BME280;29868;47.360;18.984;2022-08-18T03:39:11;99850.28;;;20.26;100.00
43818;BME280;29868;47.360;18.984;2022-08-18T03:41:39;99844.56;;;20.39;100.00
43818;BME280;29868;47.360;18.984;2022-08-18T03:44:08;99852.56;;;20.36;100.00
43818;BME280;29868;47.360;18.984;2022-08-18T03:46:33;99854.94;;;20.44;100.00
43818;BME280;29868;47.360;18.984;2022-08-18T03:48:58;99856.66;;;20.45;100.00
43818;BME280;29868;47.360;18.984;2022-08-18T03:51:28;99857.75;;;20.39;100.00
43818;BME280;29868;47.360;18.984;2022-08-18T03:53:57;99850.38;;;20.51;100.00
43818;BME280;29868;47.360;18.984;2022-08-18T03:56:36;99852.75;;;20.58;100.00
43818;BME280;29868;47.360;18.984;2022-08-18T03:59:10;99849.53;;;20.50;100.00
43818;BME280;29868;47.360;18.984;2022-08-18T04:01:39;99852.84;;;20.55;100.00
43818;BME280;29868;47.360;18.984;2022-08-18T04:04:08;99856.91;;;20.65;100.00
43818;BME280;29868;47.360;18.984;2022-08-18T04:06:59;99859.66;;;20.62;100.00
43818;BME280;29868;47.360;18.984;2022-08-18T04:09:27;99860.22;;;20.72;100.00
43818;BME280;29868;47.360;18.984;2022-08-18T04:11:54;99864.00;;;20.90;100.00
43818;BME280;29868;47.360;18.984;2022-08-18T04:14:22;99869.06;;;20.96;100.00
43818;BME280;29868;47.360;18.984;2022-08-18T04:16:57;99864.75;;;20.94;100.00
43818;BME280;29868;47.360;18.984;2022-08-18T04:19:23;99857.97;;;21.11;100.00
43818;BME280;29868;47.360;18.984;2022-08-18T04:21:50;99858.63;;;21.18;100.00
43818;BME280;29868;47.360;18.984;2022-08-18T04:24:16;99862.00;;;21.22;100.00
43818;BME280;29868;47.360;18.984;2022-08-18T04:26:45;99857.41;;;21.27;100.00
43818;BME280;29868;47.360;18.984;2022-08-18T04:29:13;99855.06;;;21.44;100.00
43818;BME280;29868;47.360;18.984;2022-08-18T04:31:39;99866.66;;;21.64;100.00
43818;BME280;29868;47.360;18.984;2022-08-18T04:34:05;99863.25;;;21.83;100.00
43818;BME280;29868;47.360;18.984;2022-08-18T04:36:33;99870.81;;;22.16;100.00
43818;BME280;29868;47.360;18.984;2022-08-18T04:38:59;99862.38;;;22.50;100.00
43818;BME280;29868;47.360;18.984;2022-08-18T04:41:25;99865.56;;;22.79;100.00
43818;BME280;29868;47.360;18.984;2022-08-18T04:43:56;99866.34;;;23.23;100.00
43818;BME280;29868;47.360;18.984;2022-08-18T04:46:22;99873.81;;;23.92;100.00
43818;BME280;29868;47.360;18.984;2022-08-18T04:48:48;99885.09;;;25.39;100.00
43818;BME280;29868;47.360;18.984;2022-08-18T04:51:16;99888.50;;;27.00;100.00
43818;BME280;29868;47.360;18.984;2022-08-18T04:53:43;99877.81;;;28.01;100.00
43818;BME280;29868;47.360;18.984;2022-08-18T04:58:46;99889.16;;;28.05;100.00
43818;BME280;29868;47.360;18.984;2022-08-18T05:01:17;99884.19;;;29.07;95.63
43818;BME280;29868;47.360;18.984;2022-08-18T05:03:44;99882.69;;;29.16;93.95
43818;BME280;29868;47.360;18.984;2022-08-18T05:06:10;99883.34;;;29.06;93.17
43818;BME280;29868;47.360;18.984;2022-08-18T05:08:36;99891.47;;;29.81;89.63
43818;BME280;29868;47.360;18.984;2022-08-18T05:11:01;99879.16;;;29.53;91.22
43818;BME280;29868;47.360;18.984;2022-08-18T05:13:27;99881.53;;;29.71;88.62
43818;BME280;29868;47.360;18.984;2022-08-18T05:15:56;99878.63;;;29.36;89.92
43818;BME280;29868;47.360;18.984;2022-08-18T05:18:23;99883.34;;;29.70;88.28
43818;BME280;29868;47.360;18.984;2022-08-18T05:20:54;99884.63;;;30.14;85.52
43818;BME280;29868;47.360;18.984;2022-08-18T05:23:21;99892.00;;;30.71;83.42
43818;BME280;29868;47.360;18.984;2022-08-18T05:25:47;99897.66;;;30.56;70.84
43818;BME280;29868;47.360;18.984;2022-08-18T05:28:12;99894.59;;;31.08;69.03
43818;BME280;29868;47.360;18.984;2022-08-18T05:30:39;99899.31;;;31.85;63.28
43818;BME280;29868;47.360;18.984;2022-08-18T05:33:05;99904.34;;;30.50;68.17
43818;BME280;29868;47.360;18.984;2022-08-18T05:35:46;99901.28;;;31.71;63.89
43818;BME280;29868;47.360;18.984;2022-08-18T05:38:38;99908.97;;;31.65;63.56
43818;BME280;29868;47.360;18.984;2022-08-18T05:41:12;99905.44;;;31.64;62.20
43818;BME280;29868;47.360;18.984;2022-08-18T05:43:39;99910.59;;;32.77;58.95
43818;BME280;29868;47.360;18.984;2022-08-18T05:46:08;99906.31;;;32.85;56.97
43818;BME280;29868;47.360;18.984;2022-08-18T05:48:35;99908.84;;;31.89;59.54
43818;BME280;29868;47.360;18.984;2022-08-18T05:51:06;99911.94;;;32.50;57.52
43818;BME280;29868;47.360;18.984;2022-08-18T05:53:34;99910.81;;;32.96;55.11
43818;BME280;29868;47.360;18.984;2022-08-18T05:56:21;99921.28;;;33.62;54.00
43818;BME280;29868;47.360;18.984;2022-08-18T05:59:07;99916.28;;;33.88;51.91
43818;BME280;29868;47.360;18.984;2022-08-18T06:01:39;99906.22;;;32.76;54.05
43818;BME280;29868;47.360;18.984;2022-08-18T06:04:22;99914.56;;;32.18;55.60
43818;BME280;29868;47.360;18.984;2022-08-18T06:06:51;99925.34;;;33.14;53.17
43818;BME280;29868;47.360;18.984;2022-08-18T06:09:23;99911.00;;;33.46;52.52
43818;BME280;29868;47.360;18.984;2022-08-18T06:11:52;99920.50;;;33.29;52.75
43818;BME280;29868;47.360;18.984;2022-08-18T06:14:19;99921.69;;;33.57;51.65
43818;BME280;29868;47.360;18.984;2022-08-18T06:20:00;99932.00;;;34.13;47.67
43818;BME280;29868;47.360;18.984;2022-08-18T06:22:39;99930.66;;;33.67;48.77
43818;BME280;29868;47.360;18.984;2022-08-18T06:25:34;99932.88;;;34.14;47.44
43818;BME280;29868;47.360;18.984;2022-08-18T06:28:08;99918.22;;;33.76;48.26
43818;BME280;29868;47.360;18.984;2022-08-18T06:41:35;99931.66;;;33.46;48.17
43818;BME280;29868;47.360;18.984;2022-08-18T06:44:08;99915.69;;;33.33;47.91
43818;BME280;29868;47.360;18.984;2022-08-18T06:46:54;99920.47;;;33.20;47.98
43818;BME280;29868;47.360;18.984;2022-08-18T06:49:33;99920.56;;;34.41;46.15
43818;BME280;29868;47.360;18.984;2022-08-18T06:52:28;99921.84;;;34.46;45.07
43818;BME280;29868;47.360;18.984;2022-08-18T06:54:56;99915.13;;;33.81;44.90
43818;BME280;29868;47.360;18.984;2022-08-18T06:57:31;99903.59;;;32.97;47.55
43818;BME280;29868;47.360;18.984;2022-08-18T07:00:24;99904.59;;;31.97;50.02
43818;BME280;29868;47.360;18.984;2022-08-18T07:02:57;99897.47;;;32.62;48.80
43818;BME280;29868;47.360;18.984;2022-08-18T07:05:27;99905.56;;;31.16;52.47
43818;BME280;29868;47.360;18.984;2022-08-18T07:10:33;99900.00;;;30.84;54.25
43818;BME280;29868;47.360;18.984;2022-08-18T07:13:07;99907.13;;;30.48;56.01
43818;BME280;29868;47.360;18.984;2022-08-18T07:15:33;99890.97;;;30.37;56.08
43818;BME280;29868;47.360;18.984;2022-08-18T07:18:06;99889.69;;;30.06;55.50
43818;BME280;29868;47.360;18.984;2022-08-18T07:20:50;99889.84;;;30.28;55.67
43818;BME280;29868;47.360;18.984;2022-08-18T07:23:36;99892.75;;;30.49;55.74
43818;BME280;29868;47.360;18.984;2022-08-18T07:26:11;99888.94;;;30.89;53.62
43818;BME280;29868;47.360;18.984;2022-08-18T07:28:42;99898.94;;;30.98;53.65
43818;BME280;29868;47.360;18.984;2022-08-18T07:36:29;99885.72;;;31.19;53.36
43818;BME280;29868;47.360;18.984;2022-08-18T07:39:05;99892.50;;;31.00;53.23
43818;BME280;29868;47.360;18.984;2022-08-18T07:44:27;99895.31;;;31.21;52.66
43818;BME280;29868;47.360;18.984;2022-08-18T07:47:21;99887.94;;;31.47;51.93
43818;BME280;29868;47.360;18.984;2022-08-18T07:49:48;99896.16;;;31.57;51.53
43818;BME280;29868;47.360;18.984;2022-08-18T07:52:21;99900.56;;;31.92;51.26
43818;BME280;29868;47.360;18.984;2022-08-18T08:00:11;99918.59;;;32.01;47.75
43818;BME280;29868;47.360;18.984;2022-08-18T08:02:48;99925.19;;;31.97;49.37
43818;BME280;29868;47.360;18.984;2022-08-18T08:05:38;99924.94;;;32.22;48.26
43818;BME280;29868;47.360;18.984;2022-08-18T08:08:19;99935.91;;;32.19;48.77
43818;BME280;29868;47.360;18.984;2022-08-18T08:11:15;99939.44;;;32.31;50.52
43818;BME280;29868;47.360;18.984;2022-08-18T08:19:09;99940.50;;;32.62;48.76
43818;BME280;29868;47.360;18.984;2022-08-18T08:21:45;99945.94;;;32.29;48.87
43818;BME280;29868;47.360;18.984;2022-08-18T08:24:39;99948.72;;;32.38;48.53
43818;BME280;29868;47.360;18.984;2022-08-18T08:32:12;99953.44;;;32.68;47.84
43818;BME280;29868;47.360;18.984;2022-08-18T08:34:50;99948.94;;;32.90;47.65
43818;BME280;29868;47.360;18.984;2022-08-18T08:37:23;99951.44;;;32.82;47.50
43818;BME280;29868;47.360;18.984;2022-08-18T08:39:56;99940.63;;;32.93;47.68
43818;BME280;29868;47.360;18.984;2022-08-18T08:44:57;99930.91;;;32.81;46.10
43818;BME280;29868;47.360;18.984;2022-08-18T08:47:44;99922.34;;;32.76;45.93
43818;BME280;29868;47.360;18.984;2022-08-18T08:50:18;99923.47;;;33.47;44.65
43818;BME280;29868;47.360;18.984;2022-08-18T08:52:49;99918.97;;;33.36;47.10
43818;BME280;29868;47.360;18.984;2022-08-18T08:55:36;99919.47;;;33.41;47.99
43818;BME280;29868;47.360;18.984;2022-08-18T08:58:30;99929.03;;;33.55;44.70
43818;BME280;29868;47.360;18.984;2022-08-18T09:00:58;99908.28;;;33.25;45.29
43818;BME280;29868;47.360;18.984;2022-08-18T09:09:18;99905.16;;;33.72;43.36
43818;BME280;29868;47.360;18.984;2022-08-18T09:14:48;99907.28;;;34.08;42.80
43818;BME280;29868;47.360;18.984;2022-08-18T09:23:27;99910.44;;;34.13;42.73
43818;BME280;29868;47.360;18.984;2022-08-18T09:25:57;99902.81;;;34.38;43.00
43818;BME280;29868;47.360;18.984;2022-08-18T09:36:31;99903.25;;;34.33;41.00
43818;BME280;29868;47.360;18.984;2022-08-18T09:42:15;99892.88;;;34.29;41.27
43818;BME280;29868;47.360;18.984;2022-08-18T09:59:52;99853.59;;;34.75;38.63
43818;BME280;29868;47.360;18.984;2022-08-18T10:07:43;99850.72;;;34.96;37.96
43818;BME280;29868;47.360;18.984;2022-08-18T10:10:25;99843.78;;;34.74;37.80
43818;BME280;29868;47.360;18.984;2022-08-18T10:15:35;99850.56;;;35.17;36.82
43818;BME280;29868;47.360;18.984;2022-08-18T10:18:16;99851.53;;;35.25;37.32
43818;BME280;29868;47.360;18.984;2022-08-18T10:42:16;99845.72;;;35.20;35.21
43818;BME280;29868;47.360;18.984;2022-08-18T10:44:47;99846.78;;;35.37;35.36
43818;BME280;29868;47.360;18.984;2022-08-18T10:47:26;99837.44;;;35.31;35.53
43818;BME280;29868;47.360;18.984;2022-08-18T10:49:54;99838.06;;;35.63;34.72
43818;BME280;29868;47.360;18.984;2022-08-18T10:53:05;99834.50;;;35.62;35.29
43818;BME280;29868;47.360;18.984;2022-08-18T11:05:40;99829.88;;;35.72;34.78
43818;BME280;29868;47.360;18.984;2022-08-18T11:08:12;99822.09;;;35.32;35.65
43818;BME280;29868;47.360;18.984;2022-08-18T11:10:41;99824.28;;;35.56;35.18
43818;BME280;29868;47.360;18.984;2022-08-18T11:13:26;99814.03;;;35.60;36.07
43818;BME280;29868;47.360;18.984;2022-08-18T11:18:56;99811.19;;;36.06;34.68
43818;BME280;29868;47.360;18.984;2022-08-18T11:21:41;99805.41;;;36.01;34.91
43818;BME280;29868;47.360;18.984;2022-08-18T11:26:44;99807.00;;;35.94;32.63
43818;BME280;29868;47.360;18.984;2022-08-18T11:29:21;99796.00;;;35.78;33.71
43818;BME280;29868;47.360;18.984;2022-08-18T11:31:55;99791.06;;;35.91;33.88
43818;BME280;29868;47.360;18.984;2022-08-18T11:35:10;99785.63;;;36.01;32.58
43818;BME280;29868;47.360;18.984;2022-08-18T11:37:25;99782.78;;;36.02;32.96
43818;BME280;29868;47.360;18.984;2022-08-18T11:39:55;99778.53;;;36.00;33.28
43818;BME280;29868;47.360;18.984;2022-08-18T11:42:38;99771.34;;;36.09;33.24
43818;BME280;29868;47.360;18.984;2022-08-18T11:45:18;99772.88;;;36.29;31.75
43818;BME280;29868;47.360;18.984;2022-08-18T11:48:16;99775.72;;;35.92;32.91
43818;BME280;29868;47.360;18.984;2022-08-18T11:58:55;99761.44;;;36.35;30.91
43818;BME280;29868;47.360;18.984;2022-08-18T12:04:37;99762.41;;;36.26;30.83
43818;BME280;29868;47.360;18.984;2022-08-18T12:07:06;99748.63;;;36.01;31.26
43818;BME280;29868;47.360;18.984;2022-08-18T12:09:42;99748.16;;;36.24;31.57
43818;BME280;29868;47.360;18.984;2022-08-18T12:12:24;99745.75;;;36.39;29.22
43818;BME280;29868;47.360;18.984;2022-08-18T12:17:30;99741.13;;;36.13;29.82
43818;BME280;29868;47.360;18.984;2022-08-18T12:19:56;99731.22;;;36.40;29.81
43818;BME280;29868;47.360;18.984;2022-08-18T12:22:28;99716.84;;;36.57;29.45
43818;BME280;29868;47.360;18.984;2022-08-18T12:24:58;99718.72;;;36.57;29.10
43818;BME280;29868;47.360;18.984;2022-08-18T12:27:25;99720.56;;;36.56;29.90
43818;BME280;29868;47.360;18.984;2022-08-18T12:29:52;99712.97;;;36.60;30.30
43818;BME280;29868;47.360;18.984;2022-08-18T12:32:21;99704.88;;;36.60;28.89
43818;BME280;29868;47.360;18.984;2022-08-18T12:34:47;99705.53;;;36.62;29.74
43818;BME280;29868;47.360;18.984;2022-08-18T12:37:18;99711.97;;;36.61;29.03
43818;BME280;29868;47.360;18.984;2022-08-18T12:39:44;99719.97;;;36.70;29.50
43818;BME280;29868;47.360;18.984;2022-08-18T12:42:11;99724.47;;;36.62;29.22
43818;BME280;29868;47.360;18.984;2022-08-18T12:44:36;99723.94;;;36.84;29.15
43818;BME280;29868;47.360;18.984;2022-08-18T12:47:13;99729.34;;;36.84;29.51
43818;BME280;29868;47.360;18.984;2022-08-18T12:49:39;99734.19;;;36.98;28.53
43818;BME280;29868;47.360;18.984;2022-08-18T12:52:06;99734.00;;;36.74;28.42
43818;BME280;29868;47.360;18.984;2022-08-18T12:54:31;99736.44;;;36.85;29.08
43818;BME280;29868;47.360;18.984;2022-08-18T12:56:58;99734.41;;;36.79;28.29
43818;BME280;29868;47.360;18.984;2022-08-18T12:59:24;99740.41;;;36.65;29.01
43818;BME280;29868;47.360;18.984;2022-08-18T13:01:50;99744.84;;;36.74;28.91
43818;BME280;29868;47.360;18.984;2022-08-18T13:04:15;99749.50;;;37.16;28.04
43818;BME280;29868;47.360;18.984;2022-08-18T13:07:09;99747.19;;;37.29;27.46
43818;BME280;29868;47.360;18.984;2022-08-18T13:09:35;99739.88;;;36.87;28.59
43818;BME280;29868;47.360;18.984;2022-08-18T13:12:01;99743.28;;;37.23;28.01
43818;BME280;29868;47.360;18.984;2022-08-18T13:14:26;99740.25;;;37.35;28.36
43818;BME280;29868;47.360;18.984;2022-08-18T13:16:52;99743.66;;;37.29;26.74
43818;BME280;29868;47.360;18.984;2022-08-18T13:19:18;99745.69;;;37.00;26.14
43818;BME280;29868;47.360;18.984;2022-08-18T13:21:43;99754.13;;;36.97;27.56
43818;BME280;29868;47.360;18.984;2022-08-18T13:24:09;99746.63;;;37.09;28.43
43818;BME280;29868;47.360;18.984;2022-08-18T13:26:38;99756.69;;;37.33;27.92
43818;BME280;29868;47.360;18.984;2022-08-18T13:29:05;99751.03;;;37.53;26.43
43818;BME280;29868;47.360;18.984;2022-08-18T13:31:31;99747.75;;;36.98;26.66
43818;BME280;29868;47.360;18.984;2022-08-18T13:33:57;99744.75;;;37.10;26.93
43818;BME280;29868;47.360;18.984;2022-08-18T13:36:24;99743.31;;;36.97;26.60
43818;BME280;29868;47.360;18.984;2022-08-18T13:38:51;99738.66;;;37.16;28.00
43818;BME280;29868;47.360;18.984;2022-08-18T13:41:19;99737.81;;;37.15;27.12
43818;BME280;29868;47.360;18.984;2022-08-18T13:43:45;99745.81;;;37.17;27.57
43818;BME280;29868;47.360;18.984;2022-08-18T13:46:13;99743.69;;;37.03;26.14
43818;BME280;29868;47.360;18.984;2022-08-18T13:48:40;99755.97;;;37.23;26.74
43818;BME280;29868;47.360;18.984;2022-08-18T13:51:07;99741.94;;;37.28;26.24
43818;BME280;29868;47.360;18.984;2022-08-18T13:53:36;99735.13;;;37.15;26.87
43818;BME280;29868;47.360;18.984;2022-08-18T13:56:03;99745.09;;;37.15;26.55
43818;BME280;29868;47.360;18.984;2022-08-18T13:58:29;99734.38;;;37.39;27.58
43818;BME280;29868;47.360;18.984;2022-08-18T14:00:59;99736.78;;;37.42;26.68
43818;BME280;29868;47.360;18.984;2022-08-18T14:03:24;99731.41;;;37.59;26.03
43818;BME280;29868;47.360;18.984;2022-08-18T14:05:50;99746.47;;;37.53;25.85
43818;BME280;29868;47.360;18.984;2022-08-18T14:08:17;99749.72;;;37.65;25.40
43818;BME280;29868;47.360;18.984;2022-08-18T14:10:43;99747.75;;;37.41;26.53
43818;BME280;29868;47.360;18.984;2022-08-18T14:13:08;99751.28;;;37.33;25.76
43818;BME280;29868;47.360;18.984;2022-08-18T14:15:34;99748.97;;;37.46;25.04
43818;BME280;29868;47.360;18.984;2022-08-18T14:18:03;99738.09;;;37.38;26.68
43818;BME280;29868;47.360;18.984;2022-08-18T14:20:29;99744.56;;;37.45;26.38
43818;BME280;29868;47.360;18.984;2022-08-18T14:28:34;99758.13;;;37.54;26.98
43818;BME280;29868;47.360;18.984;2022-08-18T14:31:02;99757.47;;;37.52;26.59
43818;BME280;29868;47.360;18.984;2022-08-18T14:33:29;99758.16;;;37.62;26.52
43818;BME280;29868;47.360;18.984;2022-08-18T14:35:55;99755.19;;;37.05;26.62
43818;BME280;29868;47.360;18.984;2022-08-18T14:38:21;99752.06;;;37.17;26.99
43818;BME280;29868;47.360;18.984;2022-08-18T14:40:47;99765.50;;;37.35;26.30
43818;BME280;29868;47.360;18.984;2022-08-18T14:43:16;99758.31;;;37.44;26.28
43818;BME280;29868;47.360;18.984;2022-08-18T14:45:43;99759.00;;;37.54;25.55
43818;BME280;29868;47.360;18.984;2022-08-18T14:48:13;99752.06;;;37.52;25.41
43818;BME280;29868;47.360;18.984;2022-08-18T14:50:40;99750.56;;;37.23;25.12
43818;BME280;29868;47.360;18.984;2022-08-18T14:53:06;99751.53;;;37.14;25.74
43818;BME280;29868;47.360;18.984;2022-08-18T14:55:32;99745.28;;;37.13;25.40
43818;BME280;29868;47.360;18.984;2022-08-18T14:57:58;99739.44;;;37.00;25.21
43818;BME280;29868;47.360;18.984;2022-08-18T15:00:23;99741.22;;;36.91;25.85
43818;BME280;29868;47.360;18.984;2022-08-18T15:02:49;99735.59;;;36.85;25.53
43818;BME280;29868;47.360;18.984;2022-08-18T15:05:15;99733.69;;;36.77;26.17
43818;BME280;29868;47.360;18.984;2022-08-18T15:07:41;99732.34;;;36.99;26.03
43818;BME280;29868;47.360;18.984;2022-08-18T15:10:09;99735.81;;;36.91;26.46
43818;BME280;29868;47.360;18.984;2022-08-18T15:12:35;99734.44;;;36.87;26.44
43818;BME280;29868;47.360;18.984;2022-08-18T15:15:03;99734.66;;;36.94;26.06
43818;BME280;29868;47.360;18.984;2022-08-18T15:17:29;99732.84;;;36.76;26.81
43818;BME280;29868;47.360;18.984;2022-08-18T15:19:56;99731.03;;;36.85;26.80
43818;BME280;29868;47.360;18.984;2022-08-18T15:22:22;99726.91;;;36.73;26.84
43818;BME280;29868;47.360;18.984;2022-08-18T15:25:06;99729.88;;;36.62;26.58
43818;BME280;29868;47.360;18.984;2022-08-18T15:27:51;99739.81;;;36.53;27.39
43818;BME280;29868;47.360;18.984;2022-08-18T15:30:17;99732.31;;;36.47;27.26
43818;BME280;29868;47.360;18.984;2022-08-18T15:32:44;99729.47;;;36.48;27.54
43818;BME280;29868;47.360;18.984;2022-08-18T15:35:12;99735.34;;;36.26;26.41
43818;BME280;29868;47.360;18.984;2022-08-18T15:37:41;99740.91;;;36.06;27.28